createdAt,value
2022-09-29T03:00:48.697Z,8.50
2022-09-29T03:03:16.753Z,8.40
2022-09-29T03:05:44.683Z,8.50
2022-09-29T03:08:12.516Z,8.50
2022-09-29T03:10:40.355Z,8.50
2022-09-29T03:13:08.170Z,8.60
2022-09-29T03:15:36.032Z,8.50
2022-09-29T03:18:09.867Z,8.40
2022-09-29T03:20:38.059Z,8.30
2022-09-29T03:23:05.890Z,8.30
2022-09-29T03:25:33.734Z,8.20
2022-09-29T03:28:02.097Z,8.20
2022-09-29T03:30:30.065Z,8.20
2022-09-29T03:32:57.963Z,8.20
2022-09-29T03:35:27.207Z,8.10
2022-09-29T03:37:58.703Z,8.00
2022-09-29T03:40:26.731Z,8.00
2022-09-29T03:42:54.638Z,8.00
2022-09-29T03:45:22.552Z,8.10
2022-09-29T03:47:51.299Z,7.90
2022-09-29T03:50:19.138Z,7.70
2022-09-29T03:52:48.329Z,7.60
2022-09-29T03:55:16.353Z,7.50
2022-09-29T03:57:44.191Z,7.50
2022-09-29T04:00:13.264Z,7.50
2022-09-29T04:02:41.092Z,7.60
2022-09-29T04:05:09.378Z,7.60
2022-09-29T04:07:37.288Z,7.80
2022-09-29T04:10:07.265Z,7.90
2022-09-29T04:12:35.107Z,8.00
2022-09-29T04:15:02.963Z,7.90
2022-09-29T04:17:30.847Z,7.80
2022-09-29T04:19:58.812Z,7.80
2022-09-29T04:22:26.736Z,7.90
2022-09-29T04:24:54.659Z,7.90
2022-09-29T04:27:23.972Z,8.10
2022-09-29T04:29:51.853Z,8.10
2022-09-29T04:32:19.955Z,8.20
2022-09-29T04:34:48.379Z,8.20
2022-09-29T04:37:16.233Z,8.30
2022-09-29T04:39:44.077Z,8.30
2022-09-29T04:42:11.941Z,8.30
2022-09-29T04:44:41.122Z,8.10
2022-09-29T04:47:08.993Z,7.90
2022-09-29T04:49:37.647Z,8.00
2022-09-29T04:52:05.565Z,8.00
2022-09-29T04:54:37.665Z,8.10
2022-09-29T04:57:06.175Z,8.00
2022-09-29T04:59:34.767Z,7.90
2022-09-29T05:02:04.076Z,7.80
2022-09-29T05:04:32.052Z,7.70
2022-09-29T05:06:59.922Z,7.60
2022-09-29T05:09:33.057Z,7.50
2022-09-29T05:12:01.944Z,7.40
2022-09-29T05:14:29.843Z,7.40
2022-09-29T05:16:58.536Z,7.30
2022-09-29T05:19:27.823Z,7.20
2022-09-29T05:21:55.691Z,7.20
2022-09-29T05:24:23.578Z,7.10
2022-09-29T05:26:56.084Z,7.30
2022-09-29T05:29:26.209Z,7.50
2022-09-29T05:31:54.430Z,7.70
2022-09-29T05:34:22.760Z,7.60
2022-09-29T05:36:52.059Z,7.60
2022-09-29T05:39:21.002Z,7.40
2022-09-29T05:41:49.527Z,7.40
2022-09-29T05:44:17.510Z,7.40
2022-09-29T05:46:46.225Z,7.20
2022-09-29T05:49:14.090Z,7.20
2022-09-29T05:51:42.036Z,7.20
2022-09-29T05:54:11.320Z,7.20
2022-09-29T05:56:44.414Z,7.30
2022-09-29T05:59:13.329Z,7.30
2022-09-29T06:01:41.236Z,7.40
2022-09-29T06:04:09.130Z,7.60
2022-09-29T06:06:39.971Z,7.50
2022-09-29T06:09:08.205Z,7.60
2022-09-29T06:11:37.437Z,7.60
2022-09-29T06:14:05.346Z,7.50
2022-09-29T06:16:34.854Z,7.50
2022-09-29T06:19:03.475Z,7.50
2022-09-29T06:21:33.729Z,7.40
2022-09-29T06:24:01.855Z,7.30
2022-09-29T06:26:30.110Z,7.40
2022-09-29T06:28:59.505Z,7.20
2022-09-29T06:31:29.163Z,7.10
2022-09-29T06:33:58.979Z,7.20
2022-09-29T06:36:48.199Z,7.20
2022-09-29T06:39:17.189Z,7.30
2022-09-29T06:41:51.909Z,7.40
2022-09-29T06:44:21.436Z,7.40
2022-09-29T06:46:51.053Z,7.40
2022-09-29T06:49:19.698Z,7.50
2022-09-29T06:51:47.797Z,7.70
2022-09-29T06:54:17.353Z,7.90
2022-09-29T06:56:48.927Z,7.90
2022-09-29T06:59:17.169Z,8.10
2022-09-29T07:01:49.538Z,8.10
2022-09-29T07:04:19.059Z,8.20
2022-09-29T07:06:46.952Z,8.20
2022-09-29T07:09:16.937Z,8.10
2022-09-29T07:11:46.483Z,8.10
2022-09-29T07:14:14.453Z,8.30
2022-09-29T07:16:42.411Z,8.30
2022-09-29T07:19:11.924Z,8.30
2022-09-29T07:21:39.831Z,8.40
2022-09-29T07:24:08.944Z,8.40
2022-09-29T07:26:37.383Z,8.50
2022-09-29T07:29:05.334Z,8.60
2022-09-29T07:31:43.671Z,8.70
2022-09-29T07:34:17.003Z,9.00
2022-09-29T07:36:44.896Z,9.10
2022-09-29T07:39:12.880Z,9.20
2022-09-29T07:41:40.785Z,9.40
2022-09-29T07:44:08.662Z,9.40
2022-09-29T07:46:36.600Z,9.50
2022-09-29T07:49:04.535Z,9.40
2022-09-29T07:51:33.736Z,9.10
2022-09-29T07:54:03.373Z,9.00
2022-09-29T07:56:32.877Z,9.00
2022-09-29T07:59:02.279Z,9.10
2022-09-29T08:01:31.808Z,9.30
2022-09-29T08:03:59.846Z,9.50
2022-09-29T08:06:30.006Z,9.60
2022-09-29T08:09:04.599Z,9.70
2022-09-29T08:11:34.493Z,9.90
2022-09-29T08:14:02.938Z,10.00
2022-09-29T08:16:31.783Z,10.00
2022-09-29T08:19:00.747Z,10.10
2022-09-29T08:21:29.745Z,10.20
2022-09-29T08:24:00.434Z,10.20
2022-09-29T08:26:40.848Z,10.10
2022-09-29T08:29:16.006Z,9.90
2022-09-29T08:31:45.196Z,10.00
2022-09-29T08:34:14.500Z,10.00
2022-09-29T08:36:43.389Z,9.90
2022-09-29T08:39:13.222Z,9.90
2022-09-29T08:41:51.709Z,9.90
2022-09-29T08:44:37.036Z,10.10
2022-09-29T08:47:15.578Z,10.30
2022-09-29T08:49:47.856Z,10.30
2022-09-29T08:52:20.193Z,10.40
2022-09-29T08:54:54.034Z,10.40
2022-09-29T08:57:22.190Z,10.70
2022-09-29T08:59:55.377Z,10.90
2022-09-29T09:03:00.002Z,11.00
2022-09-29T09:05:54.394Z,11.20
2022-09-29T09:08:38.914Z,11.20
2022-09-29T09:11:23.135Z,11.30
2022-09-29T09:14:04.292Z,11.40
2022-09-29T09:16:40.803Z,11.50
2022-09-29T09:19:37.909Z,11.50
2022-09-29T09:22:33.653Z,11.80
2022-09-29T09:25:09.102Z,12.00
2022-09-29T09:27:44.022Z,11.90
2022-09-29T09:30:16.895Z,12.10
2022-09-29T09:32:50.621Z,12.20
2022-09-29T09:35:30.424Z,12.00
2022-09-29T09:38:03.118Z,11.90
2022-09-29T09:40:38.494Z,12.10
2022-09-29T09:43:13.403Z,12.30
2022-09-29T09:45:48.676Z,12.40
2022-09-29T09:48:24.039Z,12.60
2022-09-29T09:50:54.135Z,12.70
2022-09-29T09:53:28.438Z,12.80
2022-09-29T09:56:08.693Z,12.90
2022-09-29T09:59:03.821Z,13.00
2022-09-29T10:01:31.833Z,13.20
2022-09-29T10:04:00.846Z,13.10
2022-09-29T10:06:29.246Z,12.80
2022-09-29T10:08:57.300Z,12.60
2022-09-29T10:11:27.847Z,12.80
2022-09-29T10:14:01.616Z,13.00
2022-09-29T10:16:36.527Z,13.20
2022-09-29T10:19:06.748Z,13.30
2022-09-29T10:21:39.176Z,13.30
2022-09-29T10:24:18.801Z,13.30
2022-09-29T10:26:48.981Z,13.10
2022-09-29T10:29:26.319Z,13.30
2022-09-29T10:32:03.323Z,13.30
2022-09-29T10:34:33.179Z,13.20
2022-09-29T10:37:03.213Z,13.40
2022-09-29T10:39:40.075Z,13.40
2022-09-29T10:42:21.723Z,13.50
2022-09-29T10:44:53.994Z,13.70
2022-09-29T10:47:23.931Z,13.80
2022-09-29T10:50:13.342Z,13.90
2022-09-29T10:52:45.213Z,14.20
2022-09-29T10:55:22.662Z,14.30
2022-09-29T10:57:51.792Z,14.30
2022-09-29T11:00:29.578Z,14.30
2022-09-29T11:03:05.910Z,14.30
2022-09-29T11:05:34.176Z,14.30
2022-09-29T11:08:03.011Z,14.30
2022-09-29T11:10:33.606Z,14.40
2022-09-29T11:13:37.675Z,14.50
2022-09-29T11:16:15.436Z,14.70
2022-09-29T11:18:45.566Z,14.80
2022-09-29T11:21:40.936Z,14.80
2022-09-29T11:24:20.838Z,15.00
2022-09-29T11:26:55.205Z,15.10
2022-09-29T11:29:33.939Z,15.10
2022-09-29T11:32:29.811Z,15.10
2022-09-29T11:35:09.028Z,15.00
2022-09-29T11:37:55.983Z,15.10
2022-09-29T11:40:32.459Z,15.20
2022-09-29T11:43:10.557Z,15.30
2022-09-29T11:45:44.134Z,15.30
2022-09-29T11:48:39.479Z,15.30
2022-09-29T11:51:19.106Z,15.00
2022-09-29T11:54:07.611Z,14.90
2022-09-29T11:56:44.148Z,15.00
2022-09-29T11:59:32.496Z,15.30
2022-09-29T12:02:22.802Z,15.50
2022-09-29T12:04:59.585Z,15.80
2022-09-29T12:07:40.949Z,15.90
2022-09-29T12:10:38.250Z,16.00
2022-09-29T12:13:18.858Z,16.10
2022-09-29T12:15:54.469Z,16.10
2022-09-29T12:18:27.201Z,16.20
2022-09-29T12:20:57.869Z,16.10
2022-09-29T12:23:29.107Z,16.10
2022-09-29T12:26:01.670Z,16.30
2022-09-29T12:28:36.425Z,16.30
2022-09-29T12:31:10.991Z,16.30
2022-09-29T12:33:42.509Z,16.30
2022-09-29T12:36:43.615Z,16.40
2022-09-29T12:39:23.270Z,16.30
2022-09-29T12:41:56.149Z,16.20
2022-09-29T12:44:30.710Z,16.10
2022-09-29T12:47:05.466Z,16.00
2022-09-29T12:49:39.689Z,16.10
2022-09-29T12:52:16.637Z,16.10
2022-09-29T12:54:51.504Z,16.00
2022-09-29T12:57:24.035Z,16.00
2022-09-29T12:59:58.023Z,16.20
2022-09-29T13:03:01.070Z,16.20
2022-09-29T13:06:03.449Z,16.20
2022-09-29T13:08:56.675Z,16.20
2022-09-29T13:11:52.349Z,15.90
2022-09-29T13:14:35.694Z,16.00
2022-09-29T13:17:26.252Z,15.90
2022-09-29T13:20:21.731Z,15.80
2022-09-29T13:23:11.499Z,16.10
2022-09-29T13:25:47.346Z,15.90
2022-09-29T13:28:26.815Z,15.60
2022-09-29T13:30:57.024Z,16.00
2022-09-29T13:33:26.828Z,16.30
2022-09-29T13:35:55.346Z,16.50
2022-09-29T13:38:26.424Z,16.40
2022-09-29T13:41:15.252Z,16.30
2022-09-29T13:44:19.154Z,16.50
2022-09-29T13:46:47.561Z,16.60
2022-09-29T13:49:25.676Z,16.70
2022-09-29T13:51:54.674Z,16.90
2022-09-29T13:54:36.776Z,17.00
2022-09-29T13:57:30.216Z,17.30
2022-09-29T14:00:20.811Z,17.60
2022-09-29T14:03:26.650Z,17.60
2022-09-29T14:06:40.105Z,17.60
2022-09-29T14:09:08.675Z,17.20
2022-09-29T14:11:40.757Z,17.20
2022-09-29T14:14:16.799Z,17.40
2022-09-29T14:16:53.924Z,17.10
2022-09-29T14:19:39.293Z,17.10
2022-09-29T14:22:29.697Z,17.40
2022-09-29T14:25:49.240Z,18.00
2022-09-29T14:28:23.551Z,18.10
2022-09-29T14:30:54.967Z,18.20
2022-09-29T14:33:25.950Z,18.00
2022-09-29T14:36:04.858Z,17.90
2022-09-29T14:38:37.628Z,17.60
2022-09-29T14:41:25.130Z,17.50
2022-09-29T14:43:57.495Z,17.60
2022-09-29T14:46:59.948Z,17.50
2022-09-29T14:50:05.286Z,17.20
2022-09-29T14:52:52.640Z,17.10
2022-09-29T14:55:30.050Z,17.00
2022-09-29T14:58:13.587Z,17.10
2022-09-29T15:01:06.206Z,16.90
2022-09-29T15:03:38.598Z,16.50
2022-09-29T15:06:12.839Z,16.20
2022-09-29T15:08:41.606Z,16.30
2022-09-29T15:11:31.194Z,16.20
2022-09-29T15:14:00.716Z,16.20
2022-09-29T15:16:45.008Z,16.30
2022-09-29T15:19:36.689Z,16.30
2022-09-29T15:22:20.287Z,16.10
2022-09-29T15:25:11.284Z,16.10
2022-09-29T15:27:41.303Z,16.10
2022-09-29T15:30:16.853Z,16.20
2022-09-29T15:32:48.632Z,16.10
2022-09-29T15:35:21.101Z,16.00
2022-09-29T15:37:58.233Z,16.00
2022-09-29T15:40:28.377Z,16.00
2022-09-29T15:42:56.684Z,15.90
2022-09-29T15:45:27.555Z,15.80
2022-09-29T15:48:05.798Z,15.60
2022-09-29T15:50:36.012Z,15.60
2022-09-29T15:53:04.891Z,15.70
2022-09-29T15:55:33.846Z,15.80
2022-09-29T15:58:03.558Z,15.70
2022-09-29T16:00:44.889Z,15.70
2022-09-29T16:03:19.951Z,15.70
2022-09-29T16:05:59.509Z,15.70
2022-09-29T16:08:31.009Z,15.50
2022-09-29T16:11:01.249Z,15.50
2022-09-29T16:13:33.377Z,15.60
2022-09-29T16:16:03.883Z,15.60
2022-09-29T16:18:38.677Z,15.30
2022-09-29T16:21:09.517Z,15.10
2022-09-29T16:23:41.307Z,14.90
2022-09-29T16:26:18.921Z,14.70
2022-09-29T16:29:03.512Z,14.60
2022-09-29T16:31:32.849Z,14.60
2022-09-29T16:34:03.273Z,14.60
2022-09-29T16:36:34.714Z,14.40
2022-09-29T16:39:03.536Z,14.30
2022-09-29T16:41:35.558Z,14.20
2022-09-29T16:44:12.859Z,14.00
2022-09-29T16:46:49.154Z,13.90
2022-09-29T16:49:21.723Z,13.90
2022-09-29T16:51:51.150Z,13.80
2022-09-29T16:54:23.083Z,13.70
2022-09-29T16:57:11.330Z,13.60
2022-09-29T16:59:39.232Z,13.60
2022-09-29T17:02:10.510Z,13.50
2022-09-29T17:04:39.966Z,13.50
2022-09-29T17:07:10.845Z,13.30
2022-09-29T17:09:38.955Z,13.30
2022-09-29T17:12:06.921Z,13.20
2022-09-29T17:14:34.909Z,13.20
2022-09-29T17:17:04.266Z,13.20
2022-09-29T17:19:32.670Z,13.10
2022-09-29T17:22:02.927Z,13.10
2022-09-29T17:24:30.954Z,13.10
2022-09-29T17:27:16.720Z,13.10
2022-09-29T17:29:44.836Z,13.10
2022-09-29T17:32:15.434Z,13.00
2022-09-29T17:34:43.330Z,13.00
2022-09-29T17:37:18.289Z,12.90
2022-09-29T17:39:46.423Z,12.90
2022-09-29T17:42:14.370Z,12.90
2022-09-29T17:44:44.534Z,13.00
2022-09-29T17:47:35.081Z,12.90
2022-09-29T17:50:19.236Z,12.80
2022-09-29T17:52:48.545Z,12.60
2022-09-29T17:55:16.621Z,12.50
2022-09-29T17:57:44.708Z,12.40
2022-09-29T18:00:16.861Z,12.40
2022-09-29T18:02:45.289Z,12.40
2022-09-29T18:05:13.332Z,12.30
2022-09-29T18:07:41.848Z,12.20
2022-09-29T18:10:21.714Z,12.10
2022-09-29T18:12:49.658Z,12.00
2022-09-29T18:15:17.897Z,12.00
2022-09-29T18:17:46.409Z,12.00
2022-09-29T18:20:16.929Z,12.00
2022-09-29T18:22:45.996Z,11.80
2022-09-29T18:25:14.489Z,11.80
2022-09-29T18:27:43.950Z,11.90
2022-09-29T18:30:20.567Z,11.90
2022-09-29T18:32:50.314Z,11.90
2022-09-29T18:35:20.837Z,12.00
2022-09-29T18:37:49.043Z,12.10
2022-09-29T18:40:17.621Z,12.20
2022-09-29T18:42:48.918Z,12.20
2022-09-29T18:45:23.105Z,12.10
2022-09-29T18:47:52.274Z,12.10
2022-09-29T18:50:22.232Z,12.10
2022-09-29T18:52:51.571Z,12.00
2022-09-29T18:55:23.174Z,12.10
2022-09-29T18:57:53.720Z,12.20
2022-09-29T19:00:23.219Z,12.20
2022-09-29T19:02:51.985Z,12.20
2022-09-29T19:05:23.513Z,12.20
2022-09-29T19:07:56.037Z,12.20
2022-09-29T19:10:24.357Z,12.10
2022-09-29T19:12:58.793Z,12.10
2022-09-29T19:15:28.089Z,12.10
2022-09-29T19:17:58.081Z,12.10
2022-09-29T19:20:28.408Z,12.10
2022-09-29T19:22:58.653Z,12.10
2022-09-29T19:25:30.074Z,12.10
2022-09-29T19:28:00.718Z,12.10
2022-09-29T19:30:29.647Z,12.10
2022-09-29T19:32:57.593Z,12.10
2022-09-29T19:35:25.680Z,12.10
2022-09-29T19:37:53.639Z,11.90
2022-09-29T19:40:24.428Z,11.80
2022-09-29T19:42:52.584Z,11.70
2022-09-29T19:45:22.568Z,11.70
2022-09-29T19:47:54.349Z,11.60
2022-09-29T19:50:39.780Z,11.50
2022-09-29T19:55:40.033Z,11.60
2022-09-29T19:58:08.605Z,11.60
2022-09-29T20:00:40.705Z,11.50
2022-09-29T20:03:09.031Z,11.40
2022-09-29T20:05:37.779Z,11.30
2022-09-29T20:08:06.687Z,11.20
2022-09-29T20:10:35.597Z,11.20
2022-09-29T20:13:04.079Z,11.00
2022-09-29T20:15:32.274Z,10.90
2022-09-29T20:18:01.646Z,10.90
2022-09-29T20:20:29.686Z,10.90
2022-09-29T20:22:57.661Z,10.90
2022-09-29T20:25:25.665Z,11.00
2022-09-29T20:27:53.646Z,11.00
2022-09-29T20:30:21.712Z,11.00
2022-09-29T20:32:50.641Z,11.10
2022-09-29T20:35:20.083Z,11.10
2022-09-29T20:37:49.306Z,11.10
2022-09-29T20:40:17.392Z,11.20
2022-09-29T20:42:48.572Z,11.10
2022-09-29T20:45:16.994Z,11.10
2022-09-29T20:47:45.012Z,11.10
2022-09-29T20:50:13.140Z,11.10
2022-09-29T20:52:42.595Z,11.10
2022-09-29T20:55:12.023Z,11.10
2022-09-29T20:57:45.409Z,11.00
2022-09-29T21:00:14.467Z,10.90
2022-09-29T21:02:42.488Z,10.90
2022-09-29T21:05:10.463Z,11.00
2022-09-29T21:07:38.766Z,10.80
2022-09-29T21:10:09.893Z,10.60
2022-09-29T21:12:38.178Z,10.60
2022-09-29T21:15:06.909Z,10.50
2022-09-29T21:17:34.938Z,10.30
2022-09-29T21:20:03.260Z,10.10
2022-09-29T21:22:31.143Z,10.00
2022-09-29T21:24:58.999Z,10.00
2022-09-29T21:27:28.879Z,10.00
2022-09-29T21:29:56.831Z,10.00
